Time;durP1;ratioP1;P1;durP2;ratioP2;P2;SDS_P1;SDS_P2;PMS_P1;PMS_P2;Temp;Humidity;BMP_temperature;BMP_pressure;BME280_temperature;BME280_humidity;BME280_pressure;Samples;Min_cycle;Max_cycle;Signal;HPM_P1;HPM_P2
2022/01/29 00:00:47;;;;;;;7.90;4.30;;;20.10;50.50;;;;;;5014970;28;20042;-59
2022/01/29 00:03:13;;;;;;;8.50;4.80;;;20.10;50.40;;;;;;5014205;28;20069;-59
2022/01/29 00:05:38;;;;;;;6.70;3.92;;;20.10;50.40;;;;;;5014937;28;20054;-59
2022/01/29 00:08:04;;;;;;;10.23;5.07;;;20.10;50.40;;;;;;5015199;28;20038;-59
2022/01/29 00:10:31;;;;;;;6.53;3.97;;;20.10;50.40;;;;;;5014129;28;20500;-59
2022/01/29 00:12:56;;;;;;;7.93;4.53;;;20.10;50.40;;;;;;5015300;28;20049;-59
2022/01/29 00:15:22;;;;;;;8.70;4.32;;;20.00;50.30;;;;;;5015211;28;20038;-59
2022/01/29 00:17:47;;;;;;;8.30;4.28;;;20.00;50.30;;;;;;5013533;28;20050;-59
2022/01/29 00:20:13;;;;;;;9.05;5.00;;;20.00;50.30;;;;;;5014083;28;20037;-60
2022/01/29 00:22:39;;;;;;;8.35;4.75;;;20.00;50.30;;;;;;5013014;28;20053;-60
2022/01/29 00:25:05;;;;;;;6.78;4.50;;;20.00;50.20;;;;;;5014950;28;20555;-60
2022/01/29 00:27:34;;;;;;;7.15;4.80;;;20.00;50.20;;;;;;5014597;28;20136;-60
2022/01/29 00:30:04;;;;;;;6.93;4.43;;;20.00;50.20;;;;;;5013907;28;20046;-60
2022/01/29 00:32:30;;;;;;;7.28;4.78;;;20.00;50.20;;;;;;5014128;28;20085;-59
2022/01/29 00:34:56;;;;;;;8.23;4.47;;;20.00;50.20;;;;;;5014828;28;20069;-59
2022/01/29 00:37:21;;;;;;;7.28;4.95;;;19.90;50.10;;;;;;5013963;28;20038;-59
2022/01/29 00:39:46;;;;;;;8.63;4.80;;;19.90;50.10;;;;;;5014160;28;20046;-59
2022/01/29 00:42:13;;;;;;;9.82;4.85;;;19.90;50.00;;;;;;5014292;28;20085;-59
2022/01/29 00:44:39;;;;;;;8.52;5.35;;;20.00;50.10;;;;;;5013576;28;20046;-59
2022/01/29 00:47:04;;;;;;;9.60;4.68;;;19.90;50.10;;;;;;5014394;28;20095;-59
2022/01/29 00:49:30;;;;;;;10.15;5.15;;;19.90;50.00;;;;;;5014328;28;20029;-59
2022/01/29 00:51:55;;;;;;;8.75;4.68;;;19.90;50.00;;;;;;5013516;28;20402;-59
2022/01/29 00:54:21;;;;;;;7.57;5.25;;;19.90;50.00;;;;;;4996607;28;20045;-59
2022/01/29 00:56:46;;;;;;;9.18;5.32;;;19.90;50.00;;;;;;5014150;28;20041;-60
2022/01/29 00:59:12;;;;;;;9.73;5.63;;;19.90;50.10;;;;;;5013187;28;20077;-59
2022/01/29 01:01:37;;;;;;;8.68;4.72;;;19.90;49.90;;;;;;5013544;28;20068;-60
2022/01/29 01:04:03;;;;;;;10.20;5.32;;;19.90;49.90;;;;;;5014244;28;20049;-60
2022/01/29 01:06:28;;;;;;;8.82;5.00;;;19.80;49.90;;;;;;5013152;28;20046;-60
2022/01/29 01:08:54;;;;;;;8.00;5.03;;;19.80;49.80;;;;;;5014080;28;20053;-60
2022/01/29 01:11:19;;;;;;;9.05;5.45;;;19.80;49.90;;;;;;5014091;28;20045;-60
2022/01/29 01:13:45;;;;;;;8.18;5.50;;;19.80;49.80;;;;;;5012896;28;20498;-60
2022/01/29 01:16:10;;;;;;;10.07;5.78;;;19.80;49.90;;;;;;5013769;28;20038;-59
2022/01/29 01:18:36;;;;;;;8.63;5.13;;;19.80;49.80;;;;;;5013644;28;20050;-60
2022/01/29 01:21:01;;;;;;;9.15;4.70;;;19.80;49.80;;;;;;5013217;28;20042;-60
2022/01/29 01:23:27;;;;;;;11.05;5.18;;;19.80;49.80;;;;;;5013341;28;20398;-60
2022/01/29 01:25:52;;;;;;;8.23;4.97;;;19.80;49.80;;;;;;4995617;28;20486;-59
2022/01/29 01:28:18;;;;;;;8.45;5.07;;;19.80;49.80;;;;;;5013464;28;20073;-59
2022/01/29 01:30:44;;;;;;;8.52;4.82;;;19.80;49.90;;;;;;5013516;28;20100;-60
2022/01/29 01:33:09;;;;;;;7.82;4.70;;;19.70;49.80;;;;;;5011623;28;20156;-60
2022/01/29 01:35:41;;;;;;;9.63;4.80;;;19.70;49.70;;;;;;5013147;28;20524;-60
2022/01/29 01:38:18;;;;;;;7.70;4.60;;;19.70;49.80;;;;;;5013026;28;20054;-60
2022/01/29 01:40:49;;;;;;;7.68;4.65;;;19.70;49.80;;;;;;5012584;28;20085;-60
2022/01/29 01:43:14;;;;;;;6.63;4.43;;;19.70;49.80;;;;;;5012473;28;20129;-60
2022/01/29 01:45:40;;;;;;;6.82;4.18;;;19.70;49.80;;;;;;5013227;28;20124;-60
2022/01/29 01:48:06;;;;;;;9.48;5.32;;;19.70;49.80;;;;;;5012231;28;20050;-60
2022/01/29 01:50:33;;;;;;;8.85;4.45;;;19.70;49.80;;;;;;5012851;28;20500;-60
2022/01/29 01:52:58;;;;;;;7.47;4.38;;;19.60;49.80;;;;;;5013438;28;20144;-60
2022/01/29 01:55:24;;;;;;;6.90;4.20;;;19.70;49.90;;;;;;5012496;28;20129;-60
2022/01/29 01:57:49;;;;;;;7.07;4.20;;;19.60;49.80;;;;;;5012637;28;20053;-60
2022/01/29 02:00:15;;;;;;;6.72;4.20;;;19.60;49.80;;;;;;5013271;28;20045;-60
2022/01/29 02:02:41;;;;;;;7.25;4.38;;;19.60;49.90;;;;;;5011846;28;20079;-60
2022/01/29 02:05:07;;;;;;;6.30;4.30;;;19.60;49.90;;;;;;5013207;28;20046;-60
2022/01/29 02:07:33;;;;;;;8.45;4.60;;;19.60;49.90;;;;;;5011569;28;20094;-60
2022/01/29 02:09:58;;;;;;;6.55;4.18;;;19.60;49.90;;;;;;5012500;28;20042;-60
2022/01/29 02:12:28;;;;;;;6.53;4.40;;;19.60;49.90;;;;;;5013214;28;20385;-60
2022/01/29 02:14:55;;;;;;;6.68;3.90;;;19.60;49.80;;;;;;5012842;28;20413;-60
2022/01/29 02:17:21;;;;;;;7.53;4.40;;;19.60;49.80;;;;;;5011950;28;20497;-60
2022/01/29 02:19:46;;;;;;;8.60;4.40;;;19.60;49.90;;;;;;5012716;28;20099;-60
2022/01/29 02:22:12;;;;;;;7.68;4.40;;;19.60;49.90;;;;;;5012303;28;20038;-60
2022/01/29 02:24:38;;;;;;;6.82;4.30;;;19.60;49.90;;;;;;5012576;28;20045;-60
2022/01/29 02:27:03;;;;;;;6.30;4.28;;;19.60;49.80;;;;;;5013062;28;20085;-59
2022/01/29 02:29:32;;;;;;;7.22;4.65;;;19.60;49.80;;;;;;5012113;28;20144;-60
2022/01/29 02:31:58;;;;;;;6.35;4.28;;;19.60;49.80;;;;;;5012712;28;20083;-60
2022/01/29 02:34:24;;;;;;;8.50;4.72;;;19.60;49.80;;;;;;5013064;28;20428;-60
2022/01/29 02:36:51;;;;;;;7.35;4.68;;;19.60;49.80;;;;;;5010961;28;20131;-60
2022/01/29 02:39:17;;;;;;;7.47;4.32;;;19.60;49.80;;;;;;5012636;28;20493;-60
2022/01/29 02:41:44;;;;;;;5.35;3.90;;;19.60;49.80;;;;;;5012354;28;20046;-59
2022/01/29 02:44:14;;;;;;;6.25;3.83;;;19.60;49.80;;;;;;5013946;28;20100;-60
2022/01/29 02:46:49;;;;;;;7.13;4.40;;;19.60;49.80;;;;;;5016371;28;20053;-60
2022/01/29 02:49:25;;;;;;;7.85;4.05;;;19.60;49.80;;;;;;5016894;28;20054;-60
2022/01/29 02:51:52;;;;;;;6.50;4.05;;;19.60;49.80;;;;;;5016093;28;20042;-60
2022/01/29 02:54:18;;;;;;;6.07;4.13;;;19.60;49.90;;;;;;5016355;28;20112;-59
2022/01/29 02:56:44;;;;;;;6.82;3.85;;;19.60;49.80;;;;;;5016374;28;20449;-59
2022/01/29 02:59:09;;;;;;;6.70;4.18;;;19.60;49.80;;;;;;5015864;28;20540;-59
2022/01/29 03:01:35;;;;;;;6.25;4.03;;;19.60;49.80;;;;;;4998093;28;20061;-59
2022/01/29 03:04:01;;;;;;;6.93;3.88;;;19.60;49.80;;;;;;5015966;28;20057;-59
2022/01/29 03:06:26;;;;;;;5.70;3.95;;;19.70;49.80;;;;;;5014500;28;20038;-59
2022/01/29 03:08:52;;;;;;;6.63;3.70;;;19.60;49.80;;;;;;5015898;28;20042;-59
2022/01/29 03:11:19;;;;;;;6.57;3.80;;;19.70;49.80;;;;;;5016103;28;20061;-59
2022/01/29 03:13:46;;;;;;;6.88;3.83;;;19.70;49.80;;;;;;5016086;28;20053;-59
2022/01/29 03:16:11;;;;;;;5.88;3.65;;;19.70;49.80;;;;;;5016188;28;20116;-59
2022/01/29 03:18:37;;;;;;;6.80;3.58;;;19.70;49.80;;;;;;5015219;28;20129;-59
2022/01/29 03:21:02;;;;;;;6.05;3.72;;;19.70;50.50;;;;;;5015939;28;20088;-59
2022/01/29 03:23:28;;;;;;;6.57;3.63;;;19.70;49.70;;;;;;5015813;28;20504;-60
2022/01/29 03:25:53;;;;;;;5.57;3.50;;;19.70;49.70;;;;;;5015115;28;20050;-59
2022/01/29 03:28:19;;;;;;;6.22;3.22;;;19.70;49.70;;;;;;5016309;28;20095;-59
2022/01/29 03:30:44;;;;;;;5.85;3.00;;;19.80;49.80;;;;;;5015686;28;20375;-59
2022/01/29 03:33:10;;;;;;;5.78;3.10;;;19.80;49.90;;;;;;5015154;28;20050;-60
2022/01/29 03:35:36;;;;;;;5.25;3.50;;;19.80;49.80;;;;;;5015521;28;20065;-60
2022/01/29 03:38:01;;;;;;;5.68;3.40;;;19.80;49.80;;;;;;5015690;28;20042;-59
2022/01/29 03:40:28;;;;;;;4.93;2.90;;;19.80;49.80;;;;;;5014829;28;20120;-60
2022/01/29 03:43:07;;;;;;;6.32;3.47;;;19.80;49.80;;;;;;5015647;28;20054;-59
2022/01/29 03:45:32;;;;;;;6.35;3.30;;;19.80;49.80;;;;;;5015463;28;20045;-60
2022/01/29 03:47:58;;;;;;;5.50;3.20;;;19.80;49.80;;;;;;5014977;28;20421;-60
2022/01/29 03:50:24;;;;;;;5.20;2.90;;;19.80;49.80;;;;;;5015685;28;20128;-60
2022/01/29 03:52:49;;;;;;;6.47;3.10;;;19.90;49.80;;;;;;5015034;28;20486;-60
2022/01/29 03:55:14;;;;;;;5.03;3.17;;;19.80;49.80;;;;;;5013680;28;20046;-60
2022/01/29 03:57:40;;;;;;;4.78;3.00;;;19.80;49.80;;;;;;5015138;28;20112;-59
2022/01/29 04:00:06;;;;;;;5.03;3.20;;;19.90;49.80;;;;;;5015589;28;20070;-60
2022/01/29 04:02:32;;;;;;;4.22;2.65;;;19.90;49.80;;;;;;5013808;28;20058;-59
2022/01/29 04:04:57;;;;;;;5.13;2.97;;;19.90;49.80;;;;;;5015227;28;20049;-60
2022/01/29 04:07:23;;;;;;;4.68;3.13;;;19.90;49.80;;;;;;5015295;28;20134;-60
2022/01/29 04:09:50;;;;;;;4.72;2.80;;;19.90;49.70;;;;;;5014245;28;20049;-60
2022/01/29 04:12:16;;;;;;;6.27;3.30;;;19.90;49.80;;;;;;5015239;28;20050;-59
2022/01/29 04:14:41;;;;;;;5.70;2.75;;;19.90;49.70;;;;;;5013006;28;20100;-60
2022/01/29 04:17:07;;;;;;;5.25;2.70;;;19.90;49.80;;;;;;5014634;28;20041;-60
2022/01/29 04:19:34;;;;;;;3.80;2.65;;;19.90;49.70;;;;;;5014750;28;20121;-60
2022/01/29 04:22:00;;;;;;;5.13;2.58;;;19.90;49.80;;;;;;5014145;28;20832;-60
2022/01/29 04:24:25;;;;;;;4.88;2.80;;;19.90;49.80;;;;;;5014490;28;20057;-60
2022/01/29 04:26:51;;;;;;;6.85;2.60;;;19.90;49.70;;;;;;5014668;28;20046;-60
2022/01/29 04:29:17;;;;;;;4.85;2.83;;;19.90;49.70;;;;;;5013888;28;20503;-60
2022/01/29 04:32:08;;;;;;;5.00;2.60;;;19.90;49.70;;;;;;5014370;28;20510;-59
2022/01/29 04:34:31;;;;;;;4.57;2.65;;;20.00;49.80;;;;;;5013711;28;20073;-60
2022/01/29 04:36:56;;;;;;;5.70;2.80;;;19.90;49.70;;;;;;5013947;28;20474;-59
2022/01/29 04:39:22;;;;;;;5.18;2.90;;;20.00;49.90;;;;;;5014697;28;20050;-59
2022/01/29 04:41:47;;;;;;;5.43;3.00;;;20.00;49.80;;;;;;5014199;28;20172;-60
2022/01/29 04:44:13;;;;;;;4.43;2.13;;;20.00;49.80;;;;;;5013747;28;20478;-60
2022/01/29 04:46:38;;;;;;;4.25;2.63;;;20.00;49.90;;;;;;5014160;28;20053;-60
2022/01/29 04:49:04;;;;;;;5.15;2.30;;;20.00;49.80;;;;;;5014669;28;20046;-60
2022/01/29 04:51:30;;;;;;;5.03;2.30;;;20.00;49.90;;;;;;5013494;28;20048;-60
2022/01/29 04:53:55;;;;;;;5.40;2.53;;;20.00;49.80;;;;;;5014585;28;20042;-60
2022/01/29 04:56:20;;;;;;;5.35;2.60;;;20.00;49.90;;;;;;5014175;28;20412;-60
2022/01/29 04:58:46;;;;;;;4.47;2.30;;;20.00;49.90;;;;;;5013085;28;20092;-60
2022/01/29 05:01:11;;;;;;;4.00;2.30;;;20.00;49.90;;;;;;5014028;28;20041;-60
2022/01/29 05:03:37;;;;;;;4.68;2.40;;;20.10;50.00;;;;;;5013879;28;20410;-59
2022/01/29 05:06:09;;;;;;;4.85;2.40;;;20.10;49.90;;;;;;5012564;28;20092;-60
2022/01/29 05:08:35;;;;;;;6.53;2.53;;;20.10;49.90;;;;;;5013493;28;20042;-60
2022/01/29 05:11:01;;;;;;;4.63;2.80;;;20.10;49.90;;;;;;5013526;28;20221;-59
2022/01/29 05:13:29;;;;;;;4.97;2.30;;;20.10;49.90;;;;;;5013795;28;20132;-59
2022/01/29 05:26:57;;;;;;;3.97;2.30;;;20.10;49.90;;;;;;5012957;28;20041;-59
2022/01/29 05:29:26;;;;;;;3.85;2.05;;;20.20;50.00;;;;;;5013844;28;20050;-59
2022/01/29 05:31:52;;;;;;;5.15;2.17;;;20.10;49.90;;;;;;5013613;28;20050;-59
2022/01/29 05:34:19;;;;;;;3.85;2.20;;;20.20;50.00;;;;;;5013071;28;20042;-59
2022/01/29 05:36:44;;;;;;;3.97;1.98;;;20.20;50.00;;;;;;4995743;28;20041;-59
2022/01/29 05:39:10;;;;;;;4.78;2.20;;;20.20;50.00;;;;;;5012971;28;20050;-59
2022/01/29 05:41:35;;;;;;;5.30;2.13;;;20.20;50.00;;;;;;4995755;28;20046;-59
2022/01/29 05:44:01;;;;;;;4.03;1.80;;;20.20;50.00;;;;;;5013693;28;20482;-60
2022/01/29 05:46:26;;;;;;;5.80;2.50;;;20.20;50.00;;;;;;5012274;28;20042;-60
2022/01/29 05:48:52;;;;;;;4.00;1.95;;;20.20;49.90;;;;;;5013598;28;20081;-60
2022/01/29 05:51:17;;;;;;;4.50;2.20;;;20.20;50.00;;;;;;5013486;28;20041;-60
2022/01/29 05:53:43;;;;;;;4.05;2.05;;;20.20;49.90;;;;;;5012481;28;20084;-60
2022/01/29 05:56:08;;;;;;;4.15;2.00;;;20.20;49.90;;;;;;5013231;28;20149;-60
2022/01/29 05:58:34;;;;;;;4.00;2.00;;;20.20;49.90;;;;;;5012897;28;20046;-60
2022/01/29 06:00:59;;;;;;;4.80;1.90;;;20.20;49.90;;;;;;4994985;28;20042;-59
2022/01/29 06:03:25;;;;;;;4.60;2.20;;;20.20;50.00;;;;;;5012893;28;20064;-60
2022/01/29 06:05:50;;;;;;;4.93;1.73;;;20.30;50.00;;;;;;5013216;28;20100;-60
2022/01/29 06:08:16;;;;;;;5.25;2.03;;;20.30;50.00;;;;;;5012622;28;20115;-59
2022/01/29 06:10:41;;;;;;;5.05;1.95;;;20.30;50.00;;;;;;4994918;28;20081;-59
2022/01/29 06:13:10;;;;;;;3.60;1.90;;;20.30;50.00;;;;;;5012849;28;20520;-59
2022/01/29 06:15:42;;;;;;;4.20;1.92;;;20.30;50.00;;;;;;5011694;28;20514;-59
2022/01/29 06:18:12;;;;;;;3.40;1.58;;;20.30;50.00;;;;;;5011270;28;20048;-59
2022/01/29 06:20:37;;;;;;;5.82;2.00;;;20.30;49.90;;;;;;5012707;28;20092;-59
2022/01/29 06:23:03;;;;;;;4.50;2.08;;;20.30;49.90;;;;;;5012385;28;20553;-59
2022/01/29 06:25:29;;;;;;;2.90;1.42;;;20.30;50.00;;;;;;5012882;28;20091;-59
2022/01/29 06:27:55;;;;;;;3.72;1.70;;;20.30;49.90;;;;;;5012776;28;20498;-59
2022/01/29 06:30:20;;;;;;;3.75;1.70;;;20.30;50.00;;;;;;5012244;28;20046;-59
2022/01/29 06:32:46;;;;;;;3.78;1.70;;;20.30;50.00;;;;;;5012672;28;20038;-59
2022/01/29 06:35:11;;;;;;;3.92;1.73;;;20.30;50.00;;;;;;5012789;28;20053;-59
2022/01/29 06:37:37;;;;;;;4.38;1.55;;;20.30;50.00;;;;;;5011787;28;20042;-59
2022/01/29 06:40:03;;;;;;;3.10;1.50;;;20.30;50.00;;;;;;5012987;28;20038;-59
2022/01/29 06:42:29;;;;;;;3.45;1.50;;;20.40;50.00;;;;;;5011723;28;20065;-59
2022/01/29 06:44:54;;;;;;;4.65;1.73;;;20.40;50.10;;;;;;5012936;28;20053;-59
2022/01/29 06:47:20;;;;;;;3.20;1.60;;;20.40;50.10;;;;;;5012849;28;20133;-60
2022/01/29 06:49:45;;;;;;;3.80;1.38;;;20.40;50.00;;;;;;5011485;28;20058;-60
2022/01/29 06:52:11;;;;;;;4.72;1.55;;;20.40;50.10;;;;;;5012880;28;20049;-60
2022/01/29 06:54:36;;;;;;;4.75;1.92;;;20.40;50.10;;;;;;5012604;28;20042;-60
2022/01/29 06:57:02;;;;;;;4.40;1.92;;;20.40;50.00;;;;;;4994150;28;20050;-60
2022/01/29 06:59:27;;;;;;;3.65;1.73;;;20.40;50.00;;;;;;5012342;28;20046;-59
2022/01/29 07:01:53;;;;;;;3.90;1.80;;;20.40;50.00;;;;;;5012299;28;20084;-60
2022/01/29 07:04:18;;;;;;;3.45;1.80;;;20.40;50.00;;;;;;5011546;28;20133;-60
2022/01/29 07:06:44;;;;;;;4.30;2.03;;;20.40;50.00;;;;;;5012152;28;20041;-60
2022/01/29 07:09:09;;;;;;;5.07;2.17;;;20.40;50.00;;;;;;5012305;28;20045;-60
2022/01/29 07:11:35;;;;;;;4.13;2.00;;;20.40;50.10;;;;;;5011670;28;20050;-60
2022/01/29 07:14:02;;;;;;;4.75;2.40;;;20.40;50.00;;;;;;5012681;28;20053;-60
2022/01/29 07:16:32;;;;;;;3.22;1.60;;;20.40;50.00;;;;;;5011932;28;20449;-60
2022/01/29 07:18:57;;;;;;;4.07;1.92;;;20.40;50.00;;;;;;5011847;28;20049;-60
2022/01/29 07:21:23;;;;;;;4.68;2.03;;;20.40;50.00;;;;;;5012272;28;20137;-60
2022/01/29 07:23:49;;;;;;;5.03;2.25;;;20.50;50.10;;;;;;5012128;28;20046;-60
2022/01/29 07:26:14;;;;;;;4.80;2.00;;;20.50;50.10;;;;;;5011822;28;20038;-60
2022/01/29 07:28:40;;;;;;;4.20;1.73;;;20.50;50.10;;;;;;5011871;28;20528;-60
2022/01/29 07:31:06;;;;;;;4.25;1.60;;;20.50;50.10;;;;;;5015745;28;20088;-60
2022/01/29 07:33:31;;;;;;;4.55;2.13;;;20.50;50.10;;;;;;5014875;28;20054;-60
2022/01/29 07:35:57;;;;;;;3.97;2.00;;;20.50;50.10;;;;;;5016367;28;20179;-60
2022/01/29 07:38:22;;;;;;;3.95;1.80;;;20.50;50.10;;;;;;5015591;28;20486;-60
2022/01/29 07:40:48;;;;;;;5.60;2.10;;;20.50;50.10;;;;;;5014414;28;20049;-60
2022/01/29 07:43:13;;;;;;;7.93;2.20;;;20.50;50.20;;;;;;5015749;28;20046;-60
2022/01/29 07:45:39;;;;;;;4.30;1.88;;;20.50;50.20;;;;;;5012221;28;20045;-60
2022/01/29 07:48:05;;;;;;;4.65;1.67;;;20.50;50.20;;;;;;4995657;28;20046;-60
2022/01/29 07:50:30;;;;;;;4.72;1.75;;;20.50;50.20;;;;;;4995117;28;20066;-62
2022/01/29 07:52:57;;;;;;;4.65;1.40;;;20.60;50.20;;;;;;5013574;28;20164;-60
2022/01/29 07:55:23;;;;;;;3.15;1.45;;;20.50;50.20;;;;;;5014753;28;20489;-60
2022/01/29 07:57:49;;;;;;;3.50;1.55;;;20.50;50.20;;;;;;5015079;28;20108;-60
2022/01/29 08:00:15;;;;;;;3.92;1.40;;;20.50;50.30;;;;;;5012037;28;20093;-60
2022/01/29 08:02:41;;;;;;;3.92;1.42;;;20.50;50.30;;;;;;4994882;28;20086;-60
2022/01/29 08:05:07;;;;;;;5.45;1.90;;;20.50;50.30;;;;;;4995688;28;20042;-60
2022/01/29 08:07:32;;;;;;;3.63;1.50;;;20.50;50.40;;;;;;4994765;28;20050;-60
2022/01/29 08:09:58;;;;;;;4.43;1.60;;;20.50;50.40;;;;;;4995808;28;20400;-60
2022/01/29 08:12:23;;;;;;;5.40;1.80;;;20.60;50.50;;;;;;4996088;28;20047;-59
2022/01/29 08:14:49;;;;;;;5.82;1.80;;;20.60;50.70;;;;;;5003874;28;20478;-59
2022/01/29 08:17:14;;;;;;;3.95;1.50;;;20.60;50.80;;;;;;5005374;28;20042;-59
2022/01/29 08:19:40;;;;;;;3.95;1.30;;;20.60;51.00;;;;;;5003644;28;20070;-59
2022/01/29 08:22:05;;;;;;;3.95;1.65;;;20.60;51.10;;;;;;5004747;28;20042;-59
2022/01/29 08:24:31;;;;;;;4.05;1.60;;;20.60;51.20;;;;;;5004724;28;20401;-60
2022/01/29 08:26:56;;;;;;;4.68;1.70;;;20.60;51.30;;;;;;5003303;28;20087;-59
2022/01/29 08:29:22;;;;;;;4.35;1.45;;;20.60;51.40;;;;;;5004478;28;20503;-59
2022/01/29 08:31:47;;;;;;;4.10;2.00;;;20.60;51.50;;;;;;5002754;28;20569;-59
2022/01/29 08:34:13;;;;;;;4.47;1.80;;;20.60;51.60;;;;;;4990107;28;20041;-59
2022/01/29 08:36:38;;;;;;;4.15;1.50;;;20.70;51.60;;;;;;5007685;28;20041;-59
2022/01/29 08:39:04;;;;;;;2.83;1.25;;;20.70;51.70;;;;;;5002947;28;20038;-59
2022/01/29 08:41:29;;;;;;;4.32;1.58;;;20.70;51.80;;;;;;5013417;28;20052;-59
2022/01/29 08:43:55;;;;;;;3.15;1.50;;;20.70;51.80;;;;;;5013863;28;20045;-59
2022/01/29 08:46:20;;;;;;;5.32;1.70;;;20.70;51.90;;;;;;5014600;28;20049;-59
2022/01/29 08:48:46;;;;;;;3.88;1.52;;;20.70;51.90;;;;;;5014250;28;20046;-60
2022/01/29 08:51:11;;;;;;;4.88;1.63;;;20.70;52.00;;;;;;5013822;28;20080;-60
2022/01/29 08:53:37;;;;;;;3.83;1.27;;;20.70;51.90;;;;;;5014001;28;20450;-59
2022/01/29 08:56:03;;;;;;;5.63;2.00;;;20.70;52.00;;;;;;5013361;28;20041;-60
2022/01/29 08:58:29;;;;;;;5.93;2.08;;;20.80;52.20;;;;;;5013907;28;20399;-59
2022/01/29 09:00:54;;;;;;;3.42;1.48;;;20.70;52.10;;;;;;5014060;28;20545;-60
2022/01/29 09:03:20;;;;;;;3.35;1.10;;;20.80;52.10;;;;;;5011875;28;20413;-60
2022/01/29 09:05:46;;;;;;;6.18;1.45;;;20.80;52.20;;;;;;5013535;28;20405;-60
2022/01/29 09:08:13;;;;;;;5.07;1.65;;;20.80;52.30;;;;;;5013592;28;20046;-60
2022/01/29 09:10:38;;;;;;;3.90;1.40;;;20.80;52.40;;;;;;5012894;28;20050;-59
2022/01/29 09:13:04;;;;;;;5.25;1.80;;;20.80;52.50;;;;;;5013542;28;20052;-59
2022/01/29 09:15:29;;;;;;;5.13;1.60;;;20.80;52.50;;;;;;5013300;28;20077;-60
2022/01/29 09:17:55;;;;;;;5.93;1.90;;;20.80;52.50;;;;;;5006614;28;20078;-59
2022/01/29 09:20:20;;;;;;;6.55;1.80;;;20.80;52.50;;;;;;4994000;28;20065;-59
2022/01/29 09:22:46;;;;;;;5.00;1.80;;;20.80;52.50;;;;;;4993790;28;20052;-60
2022/01/29 09:25:11;;;;;;;5.55;1.95;;;20.90;52.60;;;;;;4993012;28;20121;-60
2022/01/29 09:27:37;;;;;;;3.58;1.75;;;20.90;52.60;;;;;;4993556;28;20051;-60
2022/01/29 09:30:04;;;;;;;4.68;2.10;;;20.90;52.60;;;;;;4993802;28;20281;-60
2022/01/29 09:32:30;;;;;;;7.57;1.83;;;20.90;52.60;;;;;;4992405;28;20058;-60
2022/01/29 09:34:56;;;;;;;3.50;1.55;;;20.90;52.60;;;;;;4993525;28;20397;-60
2022/01/29 09:37:21;;;;;;;5.07;1.88;;;20.90;52.70;;;;;;4993613;28;20552;-60
2022/01/29 09:39:47;;;;;;;3.85;1.75;;;20.90;52.70;;;;;;4992274;28;20441;-60
2022/01/29 09:42:13;;;;;;;5.65;2.08;;;20.90;52.70;;;;;;4993542;28;20533;-59
2022/01/29 09:44:40;;;;;;;6.28;2.00;;;20.90;52.60;;;;;;4993194;28;20039;-60
2022/01/29 09:47:06;;;;;;;5.15;1.73;;;20.90;52.70;;;;;;4991180;28;20051;-60
2022/01/29 09:49:32;;;;;;;3.70;1.70;;;21.00;52.70;;;;;;4993479;28;20108;-60
2022/01/29 09:51:58;;;;;;;5.32;1.83;;;21.00;52.70;;;;;;4993051;28;20556;-60
2022/01/29 09:54:23;;;;;;;4.53;1.80;;;21.00;52.70;;;;;;4992058;28;20046;-60
2022/01/29 09:56:49;;;;;;;4.30;1.65;;;21.00;52.70;;;;;;4991720;28;20054;-60
2022/01/29 09:59:14;;;;;;;5.55;2.00;;;21.00;52.70;;;;;;4992907;28;20053;-59
2022/01/29 10:01:40;;;;;;;4.18;1.80;;;21.00;52.70;;;;;;4992092;28;20426;-60
2022/01/29 10:04:06;;;;;;;6.93;1.73;;;21.00;52.70;;;;;;4993103;28;20536;-60
2022/01/29 10:06:31;;;;;;;4.25;1.70;;;21.00;52.70;;;;;;4992380;28;20089;-60
2022/01/29 10:08:59;;;;;;;3.53;1.63;;;21.00;52.70;;;;;;4993156;28;20109;-60
2022/01/29 10:11:26;;;;;;;3.35;1.48;;;21.00;52.70;;;;;;4992700;28;20053;-60
2022/01/29 10:13:52;;;;;;;4.07;1.73;;;21.00;52.70;;;;;;4991974;28;20413;-59
2022/01/29 10:16:19;;;;;;;4.53;1.60;;;21.00;52.70;;;;;;4992532;28;20481;-60
2022/01/29 10:18:47;;;;;;;5.33;1.93;;;21.00;52.70;;;;;;4992689;28;20050;-59
2022/01/29 10:21:16;;;;;;;2.88;1.48;;;21.10;52.80;;;;;;4992447;28;20070;-59
2022/01/29 10:23:43;;;;;;;3.65;1.52;;;21.10;52.60;;;;;;4992738;28;20046;-59
2022/01/29 10:26:10;;;;;;;4.05;1.40;;;21.10;52.50;;;;;;4992791;28;20042;-59
2022/01/29 10:28:36;;;;;;;4.82;1.40;;;21.10;52.40;;;;;;4990875;28;20409;-59
2022/01/29 10:31:06;;;;;;;4.40;1.60;;;21.10;52.40;;;;;;4992939;28;20101;-59
2022/01/29 10:33:38;;;;;;;4.60;1.70;;;21.10;52.30;;;;;;4992740;28;20054;-59
2022/01/29 10:36:08;;;;;;;6.18;1.58;;;21.10;52.30;;;;;;4992340;28;20051;-59
2022/01/29 10:38:40;;;;;;;4.95;1.77;;;21.10;52.30;;;;;;4992613;28;20081;-59
2022/01/29 10:41:26;;;;;;;5.80;1.70;;;21.10;52.30;;;;;;4991717;28;20405;-60
2022/01/29 10:44:19;;;;;;;2.47;1.33;;;21.10;52.60;;;;;;5008673;28;20077;-60
2022/01/29 10:46:47;;;;;;;2.58;1.20;;;21.10;52.60;;;;;;5011786;28;20651;-58
2022/01/29 10:49:24;;;;;;;5.17;1.67;;;21.10;52.60;;;;;;5011832;28;20153;-59
2022/01/29 10:52:10;;;;;;;4.60;1.52;;;21.10;52.60;;;;;;4995119;28;20402;-59
2022/01/29 10:54:37;;;;;;;5.28;1.73;;;21.10;52.70;;;;;;5012417;28;20563;-59
2022/01/29 10:57:10;;;;;;;5.50;1.90;;;21.10;52.70;;;;;;5011675;28;20494;-59
2022/01/29 10:59:38;;;;;;;5.15;1.90;;;21.10;52.70;;;;;;4994573;28;20049;-59
2022/01/29 11:02:08;;;;;;;4.32;1.83;;;21.10;52.70;;;;;;5009114;28;20049;-58
2022/01/29 11:04:36;;;;;;;7.30;1.60;;;21.10;52.70;;;;;;5002014;28;20138;-59
2022/01/29 11:07:05;;;;;;;3.70;1.85;;;21.20;52.80;;;;;;4992985;28;20069;-59
2022/01/29 11:09:31;;;;;;;5.72;2.25;;;21.10;52.70;;;;;;5015933;28;20119;-59
2022/01/29 11:11:58;;;;;;;6.78;1.70;;;21.20;52.80;;;;;;5013844;28;20125;-59
2022/01/29 11:14:24;;;;;;;4.18;1.70;;;21.10;52.70;;;;;;4996585;28;20065;-59
2022/01/29 11:16:51;;;;;;;5.22;1.80;;;21.20;52.70;;;;;;5003956;28;20042;-59
2022/01/29 11:19:16;;;;;;;4.20;1.70;;;21.20;52.80;;;;;;5015078;28;20077;-59
2022/01/29 11:21:42;;;;;;;6.25;1.85;;;21.20;52.90;;;;;;5015701;28;20347;-59
2022/01/29 11:24:09;;;;;;;4.57;1.80;;;21.20;52.90;;;;;;5015369;28;20034;-59
2022/01/29 11:26:35;;;;;;;5.25;1.70;;;21.20;52.90;;;;;;5014337;28;20041;-58
2022/01/29 11:29:23;;;;;;;4.85;1.75;;;21.20;52.90;;;;;;5016047;28;20069;-59
2022/01/29 11:31:48;;;;;;;;;;;21.20;52.90;;;;;;5014897;28;20481;-58
2022/01/29 11:34:14;;;;;;;3.17;1.50;;;21.20;52.90;;;;;;5015850;28;19928;-59
2022/01/29 11:36:48;;;;;;;3.67;1.40;;;21.20;52.80;;;;;;5015462;28;20439;-59
2022/01/29 11:39:25;;;;;;;3.45;1.70;;;21.20;52.80;;;;;;5015021;28;20125;-59
2022/01/29 11:42:12;;;;;;;4.60;1.60;;;21.20;52.80;;;;;;5015814;28;20077;-58
2022/01/29 11:44:38;;;;;;;3.53;1.60;;;21.20;52.80;;;;;;5015668;28;20044;-59
2022/01/29 11:47:23;;;;;;;5.93;2.17;;;21.20;52.70;;;;;;5013900;28;20092;-59
2022/01/29 11:49:49;;;;;;;4.28;1.45;;;21.20;52.50;;;;;;5015357;28;20121;-58
2022/01/29 11:52:21;;;;;;;6.78;1.50;;;21.20;52.70;;;;;;5014996;28;20042;-59
2022/01/29 11:55:06;;;;;;;3.78;1.38;;;21.20;52.90;;;;;;5015286;28;20088;-60
2022/01/29 11:57:31;;;;;;;5.68;1.50;;;21.20;53.00;;;;;;5010501;28;20053;-60
2022/01/29 12:00:04;;;;;;;3.35;1.25;;;21.20;52.90;;;;;;5002285;28;20042;-60
2022/01/29 12:02:29;;;;;;;5.22;1.25;;;21.20;52.90;;;;;;5012126;28;20062;-60
2022/01/29 12:04:56;;;;;;;3.33;1.20;;;21.20;53.00;;;;;;5015149;28;20500;-60
2022/01/29 12:10:05;;;;;;;4.45;1.40;;;21.20;53.00;;;;;;5015285;28;20046;-60
2022/01/29 12:12:32;;;;;;;3.63;1.33;;;21.20;52.90;;;;;;5014823;28;20048;-60
2022/01/29 12:15:18;;;;;;;4.30;1.27;;;21.20;52.80;;;;;;5013595;28;20117;-60
2022/01/29 12:17:57;;;;;;;3.28;1.30;;;21.20;52.50;;;;;;5003226;28;20050;-59
2022/01/29 12:20:24;;;;;;;4.68;1.40;;;21.20;52.50;;;;;;5014301;28;20046;-59
2022/01/29 12:22:50;;;;;;;3.63;1.02;;;21.20;52.50;;;;;;5014815;28;20092;-59
2022/01/29 12:25:20;;;;;;;2.97;0.95;;;21.20;52.40;;;;;;5014960;28;20077;-60
2022/01/29 12:28:15;;;;;;;5.22;1.27;;;21.20;52.30;;;;;;5013945;28;20049;-60
2022/01/29 12:30:41;;;;;;;5.78;1.42;;;21.20;52.20;;;;;;5001885;28;20091;-59
2022/01/29 12:33:12;;;;;;;5.40;1.10;;;21.20;52.20;;;;;;5014855;28;20417;-62
2022/01/29 12:35:42;;;;;;;3.90;1.02;;;21.30;52.20;;;;;;5013239;28;20128;-60
2022/01/29 12:38:10;;;;;;;7.15;1.50;;;21.20;52.10;;;;;;5014564;28;20401;-59
2022/01/29 12:40:39;;;;;;;3.58;1.13;;;21.30;52.10;;;;;;5014229;28;20060;-59
2022/01/29 12:44:01;;;;;;;5.18;1.50;;;21.30;52.20;;;;;;5014044;28;20053;-60
2022/01/29 12:46:28;;;;;;;6.40;1.23;;;21.30;52.10;;;;;;4953820;29;20055;-60
2022/01/29 12:49:07;;;;;;;4.13;1.20;;;21.30;52.20;;;;;;5010596;28;20058;-60
2022/01/29 12:51:58;;;;;;;4.22;1.73;;;21.30;52.20;;;;;;5014326;28;20050;-60
2022/01/29 12:54:26;;;;;;;5.95;1.45;;;21.30;52.20;;;;;;5014444;28;20046;-60
2022/01/29 12:56:54;;;;;;;4.22;1.50;;;21.30;52.20;;;;;;4999507;28;20082;-59
2022/01/29 12:59:19;;;;;;;8.43;1.52;;;21.30;52.10;;;;;;4977914;28;20100;-59
2022/01/29 13:01:46;;;;;;;4.07;1.35;;;21.30;52.20;;;;;;4993906;28;20046;-60